Time;durP1;ratioP1;P1;durP2;ratioP2;P2;SDS_P1;SDS_P2;PMS_P1;PMS_P2;Temp;Humidity;BMP_temperature;BMP_pressure;BME280_temperature;BME280_humidity;BME280_pressure;Samples;Min_cycle;Max_cycle;Signal;HPM_P1;HPM_P2
2023/05/10 00:00:09;;;;;;;7.77;5.40;;;;;;;;;;5014876;28;20254;-86
2023/05/10 00:02:38;;;;;;;3.77;3.20;;;;;;;;;;5014264;28;20299;-85
2023/05/10 00:05:07;;;;;;;1.30;1.30;;;;;;;;;;5014600;28;20208;-85
2023/05/10 00:07:36;;;;;;;1.27;1.17;;;;;;;;;;5013913;28;20196;-86
2023/05/10 00:10:04;;;;;;;0.67;0.67;;;;;;;;;;5014481;28;20195;-89
2023/05/10 00:12:33;;;;;;;1.20;1.10;;;;;;;;;;5014776;28;20231;-89
2023/05/10 00:15:03;;;;;;;2.37;2.27;;;;;;;;;;5014441;28;20197;-89
2023/05/10 00:17:31;;;;;;;3.17;2.97;;;;;;;;;;5013965;28;20205;-89
2023/05/10 00:20:00;;;;;;;0.50;0.50;;;;;;;;;;5014630;28;20205;-89
2023/05/10 00:22:28;;;;;;;3.20;2.90;;;;;;;;;;5014124;28;20219;-89
2023/05/10 00:24:57;;;;;;;0.90;0.90;;;;;;;;;;5014006;28;20209;-89
2023/05/10 00:27:25;;;;;;;1.60;1.60;;;;;;;;;;5014181;28;20213;-88
2023/05/10 00:29:54;;;;;;;3.20;2.87;;;;;;;;;;5013854;28;20300;-88
2023/05/10 00:32:24;;;;;;;1.47;1.37;;;;;;;;;;5013615;28;20221;-89
2023/05/10 00:34:53;;;;;;;2.53;2.40;;;;;;;;;;5012765;28;20209;-89
2023/05/10 00:37:21;;;;;;;18.10;13.20;;;;;;;;;;5013691;28;20311;-89
2023/05/10 00:39:49;;;;;;;14.87;10.87;;;;;;;;;;5013868;28;20210;-89
2023/05/10 00:42:18;;;;;;;3.20;2.97;;;;;;;;;;5013558;28;20247;-88
2023/05/10 00:44:46;;;;;;;5.80;4.90;;;;;;;;;;5013611;28;20212;-88
2023/05/10 00:47:15;;;;;;;4.37;3.50;;;;;;;;;;5013650;28;20238;-89
2023/05/10 00:49:45;;;;;;;14.20;7.67;;;;;;;;;;5013733;28;20201;-89
2023/05/10 00:52:14;;;;;;;4.27;3.17;;;;;;;;;;5014162;28;20223;-89
2023/05/10 00:54:43;;;;;;;6.63;4.97;;;;;;;;;;5013743;28;20210;-89
2023/05/10 00:57:11;;;;;;;0.83;0.70;;;;;;;;;;5013257;28;20199;-89
2023/05/10 00:59:40;;;;;;;4.30;3.47;;;;;;;;;;5013668;28;20205;-89
2023/05/10 01:02:08;;;;;;;6.50;2.03;;;;;;;;;;5014314;28;20209;-89
2023/05/10 01:04:37;;;;;;;4.63;4.07;;;;;;;;;;5013301;28;20204;-89
2023/05/10 01:07:07;;;;;;;4.53;4.13;;;;;;;;;;5013901;28;20235;-89
2023/05/10 01:09:36;;;;;;;9.17;4.90;;;;;;;;;;5013904;28;20248;-89
2023/05/10 01:12:06;;;;;;;5.60;3.67;;;;;;;;;;5013282;28;20212;-89
2023/05/10 01:14:36;;;;;;;12.13;6.13;;;;;;;;;;5014667;28;20215;-89
2023/05/10 01:17:05;;;;;;;12.63;3.80;;;;;;;;;;5013346;28;20204;-89
2023/05/10 01:19:34;;;;;;;4.37;2.77;;;;;;;;;;5012771;28;20197;-89
2023/05/10 01:22:07;;;;;;;3.13;2.37;;;;;;;;;;5013665;28;20203;-89
2023/05/10 01:24:45;;;;;;;4.07;2.13;;;;;;;;;;5013401;28;20242;-89
2023/05/10 01:27:21;;;;;;;5.50;3.10;;;;;;;;;;5012896;28;20215;-89
2023/05/10 01:30:17;;;;;;;6.90;2.27;;;;;;;;;;5013227;28;20258;-89
2023/05/10 01:32:51;;;;;;;1.13;1.13;;;;;;;;;;5013286;28;20259;-88
2023/05/10 01:35:22;;;;;;;9.90;5.07;;;;;;;;;;5013193;28;20302;-89
2023/05/10 01:37:54;;;;;;;10.83;2.50;;;;;;;;;;5013286;28;20204;-89
2023/05/10 01:40:24;;;;;;;9.40;3.83;;;;;;;;;;5013142;28;20201;-89
2023/05/10 01:42:55;;;;;;;8.60;4.53;;;;;;;;;;5012753;28;20232;-89
2023/05/10 01:45:28;;;;;;;1.47;1.20;;;;;;;;;;5012342;28;20258;-85
2023/05/10 01:48:03;;;;;;;16.13;6.07;;;;;;;;;;5013191;28;20222;-85
2023/05/10 01:50:33;;;;;;;4.93;3.23;;;;;;;;;;5012681;28;20210;-85
2023/05/10 01:53:02;;;;;;;0.90;0.87;;;;;;;;;;5012138;28;20297;-85
2023/05/10 01:55:32;;;;;;;44.47;10.27;;;;;;;;;;5012561;28;20208;-85
2023/05/10 01:58:04;;;;;;;2.47;2.20;;;;;;;;;;5012813;28;20254;-85
2023/05/10 02:00:33;;;;;;;8.97;3.57;;;;;;;;;;5012098;28;20246;-85
2023/05/10 02:03:06;;;;;;;4.20;2.87;;;;;;;;;;5012335;28;20207;-85
2023/05/10 02:05:35;;;;;;;23.77;5.07;;;;;;;;;;5012639;28;20203;-85
2023/05/10 02:08:06;;;;;;;78.77;7.70;;;;;;;;;;5011671;28;20290;-85
2023/05/10 02:10:36;;;;;;;38.53;8.97;;;;;;;;;;5012860;28;20207;-88
2023/05/10 02:13:05;;;;;;;1.90;1.27;;;;;;;;;;5012413;28;20326;-87
2023/05/10 02:15:35;;;;;;;8.03;3.23;;;;;;;;;;5011996;28;20204;-89
2023/05/10 02:18:06;;;;;;;23.70;4.67;;;;;;;;;;5012876;28;20286;-89
2023/05/10 02:20:35;;;;;;;2.07;1.97;;;;;;;;;;5012517;28;20208;-89
2023/05/10 02:23:04;;;;;;;26.20;6.57;;;;;;;;;;5012287;28;20321;-89
2023/05/10 02:25:33;;;;;;;3.57;2.47;;;;;;;;;;5012466;28;20203;-89
2023/05/10 02:28:03;;;;;;;7.53;4.33;;;;;;;;;;5012256;28;20263;-89
2023/05/10 02:30:33;;;;;;;8.47;4.33;;;;;;;;;;5011869;28;20207;-89
2023/05/10 02:33:01;;;;;;;9.47;4.83;;;;;;;;;;5012416;28;20207;-88
2023/05/10 02:35:33;;;;;;;1.03;1.03;;;;;;;;;;5012090;28;20206;-88
2023/05/10 02:38:02;;;;;;;4.07;2.30;;;;;;;;;;5011972;28;20307;-89
2023/05/10 02:40:31;;;;;;;0.80;0.80;;;;;;;;;;5011743;28;20210;-89
2023/05/10 02:43:00;;;;;;;2.03;1.93;;;;;;;;;;5011499;28;20191;-89
2023/05/10 02:45:30;;;;;;;3.77;3.47;;;;;;;;;;5012094;28;20204;-89
2023/05/10 02:47:59;;;;;;;0.97;0.97;;;;;;;;;;5012010;28;20235;-89
2023/05/10 02:50:29;;;;;;;2.17;1.97;;;;;;;;;;5012237;28;20283;-89
2023/05/10 02:53:02;;;;;;;2.53;2.37;;;;;;;;;;5011657;28;20204;-89
2023/05/10 02:55:34;;;;;;;6.97;4.03;;;;;;;;;;5011521;28;20202;-89
2023/05/10 02:58:03;;;;;;;0.70;0.70;;;;;;;;;;5013264;28;20203;-85
2023/05/10 03:00:32;;;;;;;4.73;4.37;;;;;;;;;;5015859;28;20204;-85
2023/05/10 03:03:01;;;;;;;4.10;3.50;;;;;;;;;;5015150;28;20192;-85
2023/05/10 03:05:30;;;;;;;8.83;2.50;;;;;;;;;;5015604;28;20209;-85
2023/05/10 03:08:00;;;;;;;4.13;2.67;;;;;;;;;;5015319;28;20258;-85
2023/05/10 03:10:31;;;;;;;1.60;1.27;;;;;;;;;;5015049;28;20234;-85
2023/05/10 03:13:07;;;;;;;4.93;3.30;;;;;;;;;;5014953;28;20211;-85
2023/05/10 03:15:40;;;;;;;2.67;2.03;;;;;;;;;;5015374;28;20203;-85
2023/05/10 03:18:11;;;;;;;5.93;5.03;;;;;;;;;;5015004;28;20302;-85
2023/05/10 03:20:43;;;;;;;8.20;4.63;;;;;;;;;;5015077;28;20215;-85
2023/05/10 03:23:15;;;;;;;4.27;2.97;;;;;;;;;;5014982;28;20210;-85
2023/05/10 03:25:44;;;;;;;5.97;4.77;;;;;;;;;;5015689;28;20212;-85
2023/05/10 03:28:13;;;;;;;2.53;2.33;;;;;;;;;;5015685;28;20219;-85
2023/05/10 03:30:42;;;;;;;9.63;4.40;;;;;;;;;;5014831;28;20204;-85
2023/05/10 03:33:12;;;;;;;3.43;1.13;;;;;;;;;;5015168;28;20208;-85
2023/05/10 03:35:41;;;;;;;3.40;2.07;;;;;;;;;;5014554;28;20231;-85
2023/05/10 03:38:11;;;;;;;1.03;1.03;;;;;;;;;;5014660;28;20269;-85
2023/05/10 03:40:41;;;;;;;8.17;5.40;;;;;;;;;;5014570;28;20253;-86
2023/05/10 03:43:09;;;;;;;7.67;4.27;;;;;;;;;;5015006;28;20262;-85
2023/05/10 03:45:38;;;;;;;4.67;3.53;;;;;;;;;;5014852;28;20266;-89
2023/05/10 03:48:07;;;;;;;1.80;1.67;;;;;;;;;;5015256;28;20200;-89
2023/05/10 03:50:35;;;;;;;3.90;3.30;;;;;;;;;;5014649;28;20238;-88
2023/05/10 03:53:04;;;;;;;14.43;6.60;;;;;;;;;;5014968;28;20222;-88
2023/05/10 03:55:34;;;;;;;3.17;2.97;;;;;;;;;;5014149;28;20242;-89
2023/05/10 03:58:04;;;;;;;1.07;1.07;;;;;;;;;;5014481;28;20223;-89
2023/05/10 04:00:32;;;;;;;3.10;2.87;;;;;;;;;;5014562;28;20254;-89
2023/05/10 04:03:01;;;;;;;2.40;2.20;;;;;;;;;;5014949;28;20267;-89
2023/05/10 04:05:29;;;;;;;0.70;0.70;;;;;;;;;;5014424;28;20207;-89
2023/05/10 04:07:58;;;;;;;4.83;2.87;;;;;;;;;;5014885;28;20239;-88
2023/05/10 04:10:29;;;;;;;10.93;6.03;;;;;;;;;;5014660;28;20207;-88
2023/05/10 04:12:57;;;;;;;3.13;2.00;;;;;;;;;;5013856;28;20192;-88
2023/05/10 04:15:27;;;;;;;1.27;1.27;;;;;;;;;;5014408;28;20231;-88
2023/05/10 04:17:56;;;;;;;9.03;5.10;;;;;;;;;;5014304;28;20195;-88
2023/05/10 04:20:24;;;;;;;3.00;2.10;;;;;;;;;;5013754;28;20206;-88
2023/05/10 04:22:53;;;;;;;2.23;2.03;;;;;;;;;;5014116;28;20211;-88
2023/05/10 04:25:21;;;;;;;2.50;2.30;;;;;;;;;;5014327;28;20258;-88
2023/05/10 04:27:50;;;;;;;12.97;7.60;;;;;;;;;;5013740;28;20250;-85
2023/05/10 04:30:18;;;;;;;5.47;4.43;;;;;;;;;;5014238;28;20204;-85
2023/05/10 04:32:48;;;;;;;0.80;0.80;;;;;;;;;;5013952;28;20231;-85
2023/05/10 04:35:17;;;;;;;5.63;3.83;;;;;;;;;;5013469;28;20211;-85
2023/05/10 04:37:45;;;;;;;6.70;3.00;;;;;;;;;;5013546;28;20275;-85
2023/05/10 04:40:14;;;;;;;5.20;2.57;;;;;;;;;;5013570;28;20238;-86
2023/05/10 04:42:43;;;;;;;6.67;3.13;;;;;;;;;;5013649;28;20341;-85
2023/05/10 04:45:12;;;;;;;2.33;2.13;;;;;;;;;;5013395;28;20290;-85
2023/05/10 04:47:40;;;;;;;3.80;2.63;;;;;;;;;;5013342;28;20200;-85
2023/05/10 04:50:10;;;;;;;3.57;3.27;;;;;;;;;;5013553;28;20206;-88
2023/05/10 04:52:39;;;;;;;2.53;2.13;;;;;;;;;;5013354;28;20207;-88
2023/05/10 04:55:09;;;;;;;2.77;2.50;;;;;;;;;;5013623;28;20258;-88
2023/05/10 04:57:37;;;;;;;4.33;1.90;;;;;;;;;;5013244;28;20203;-88
2023/05/10 05:00:07;;;;;;;1.13;1.13;;;;;;;;;;5012907;28;20192;-88
2023/05/10 05:02:35;;;;;;;5.70;3.97;;;;;;;;;;5013311;28;20203;-88
2023/05/10 05:05:04;;;;;;;8.03;6.20;;;;;;;;;;5013279;28;20218;-88
2023/05/10 05:07:34;;;;;;;4.20;2.40;;;;;;;;;;5013481;28;20227;-88
2023/05/10 05:10:03;;;;;;;9.73;7.00;;;;;;;;;;5013304;28;20204;-88
2023/05/10 05:12:31;;;;;;;6.83;5.37;;;;;;;;;;5013403;28;20204;-88
2023/05/10 05:15:00;;;;;;;9.20;7.17;;;;;;;;;;5012924;28;20255;-89
2023/05/10 05:17:28;;;;;;;8.77;6.07;;;;;;;;;;5012949;28;20218;-89
2023/05/10 05:19:57;;;;;;;2.17;2.07;;;;;;;;;;5012957;28;20204;-88
2023/05/10 05:22:27;;;;;;;2.10;2.00;;;;;;;;;;5012700;28;20200;-88
2023/05/10 05:24:58;;;;;;;5.90;5.40;;;;;;;;;;5012988;28;20231;-87
2023/05/10 05:27:29;;;;;;;5.93;4.57;;;;;;;;;;5013080;28;20223;-88
2023/05/10 05:29:58;;;;;;;4.30;2.60;;;;;;;;;;5012981;28;20230;-89
2023/05/10 05:32:27;;;;;;;8.47;6.67;;;;;;;;;;5012980;28;20208;-88
2023/05/10 05:34:56;;;;;;;12.00;7.57;;;;;;;;;;5012989;28;20227;-86
2023/05/10 05:37:26;;;;;;;0.97;0.97;;;;;;;;;;5012833;28;20199;-86
2023/05/10 05:39:55;;;;;;;5.07;4.10;;;;;;;;;;5012892;28;20204;-86
2023/05/10 05:42:27;;;;;;;3.70;3.60;;;;;;;;;;5012678;28;20211;-87
2023/05/10 05:44:55;;;;;;;4.43;3.50;;;;;;;;;;5012697;28;20303;-88
2023/05/10 05:47:24;;;;;;;3.60;2.80;;;;;;;;;;5012455;28;20238;-87
2023/05/10 05:49:56;;;;;;;1.20;1.20;;;;;;;;;;5012476;28;20208;-87
2023/05/10 05:52:24;;;;;;;5.40;3.13;;;;;;;;;;5012677;28;20240;-87
2023/05/10 05:54:53;;;;;;;1.53;1.50;;;;;;;;;;5012502;28;20196;-87
2023/05/10 05:57:22;;;;;;;2.17;1.97;;;;;;;;;;5012846;28;20216;-86
2023/05/10 05:59:52;;;;;;;3.93;3.20;;;;;;;;;;5012728;28;20251;-86
2023/05/10 06:02:21;;;;;;;2.90;2.37;;;;;;;;;;5012017;28;20265;-86
2023/05/10 06:04:49;;;;;;;1.27;1.27;;;;;;;;;;5012446;28;20204;-86
2023/05/10 06:07:18;;;;;;;4.40;3.33;;;;;;;;;;5012005;28;20204;-86
2023/05/10 06:09:46;;;;;;;1.40;1.17;;;;;;;;;;5011746;28;20323;-86
2023/05/10 06:12:15;;;;;;;3.40;2.60;;;;;;;;;;5013019;28;20283;-86
2023/05/10 06:14:43;;;;;;;6.53;3.37;;;;;;;;;;5012914;28;20210;-86
2023/05/10 06:17:13;;;;;;;1.90;1.53;;;;;;;;;;5011685;28;20228;-86
2023/05/10 06:19:41;;;;;;;7.50;3.70;;;;;;;;;;5011834;28;20284;-86
2023/05/10 06:22:10;;;;;;;6.57;4.60;;;;;;;;;;5011969;28;20303;-85
2023/05/10 06:24:38;;;;;;;25.00;4.33;;;;;;;;;;5012598;28;20200;-86
2023/05/10 06:27:07;;;;;;;6.97;6.23;;;;;;;;;;5012169;28;20215;-85
2023/05/10 06:29:36;;;;;;;2.80;1.97;;;;;;;;;;5011867;28;20205;-86
2023/05/10 06:32:06;;;;;;;6.87;4.37;;;;;;;;;;5011223;28;20226;-86
2023/05/10 06:34:36;;;;;;;5.60;3.83;;;;;;;;;;5011805;28;20196;-86
2023/05/10 06:37:05;;;;;;;0.93;0.93;;;;;;;;;;5011879;28;20219;-85
2023/05/10 06:39:33;;;;;;;2.87;2.67;;;;;;;;;;5012010;28;20385;-85
2023/05/10 06:42:02;;;;;;;7.37;5.30;;;;;;;;;;5011280;28;20200;-86
2023/05/10 06:44:31;;;;;;;6.07;4.10;;;;;;;;;;5011660;28;20205;-86
2023/05/10 06:46:59;;;;;;;8.37;4.43;;;;;;;;;;5011946;28;20243;-85
2023/05/10 06:49:30;;;;;;;5.30;4.80;;;;;;;;;;5011718;28;20302;-85
2023/05/10 06:52:00;;;;;;;3.07;2.87;;;;;;;;;;5012212;28;20303;-85
2023/05/10 06:54:29;;;;;;;3.47;3.17;;;;;;;;;;5011714;28;20213;-86
2023/05/10 06:56:57;;;;;;;2.57;2.37;;;;;;;;;;5011343;28;20223;-86
2023/05/10 06:59:26;;;;;;;7.50;5.23;;;;;;;;;;5011797;28;20193;-85
2023/05/10 07:01:54;;;;;;;8.30;5.53;;;;;;;;;;5012147;28;20201;-86
2023/05/10 07:04:23;;;;;;;6.10;4.10;;;;;;;;;;4993913;28;20200;-86
2023/05/10 07:06:51;;;;;;;8.33;2.67;;;;;;;;;;5011620;28;20197;-85
2023/05/10 07:09:21;;;;;;;3.13;2.83;;;;;;;;;;5010843;28;20281;-85
2023/05/10 07:11:49;;;;;;;3.40;2.97;;;;;;;;;;5011548;28;20204;-85
2023/05/10 07:14:18;;;;;;;7.50;4.97;;;;;;;;;;5011454;28;20240;-85
2023/05/10 07:16:47;;;;;;;3.53;3.23;;;;;;;;;;5011367;28;20317;-85
2023/05/10 07:19:15;;;;;;;6.07;2.80;;;;;;;;;;5011377;28;20261;-85
2023/05/10 07:21:44;;;;;;;4.90;4.00;;;;;;;;;;5011259;28;20216;-85
2023/05/10 07:24:12;;;;;;;7.60;3.87;;;;;;;;;;5011590;28;20206;-86
2023/05/10 07:26:42;;;;;;;7.53;5.23;;;;;;;;;;5011686;28;20203;-86
2023/05/10 07:29:11;;;;;;;3.37;2.90;;;;;;;;;;5010973;28;20202;-85
2023/05/10 07:31:41;;;;;;;8.10;5.73;;;;;;;;;;5011482;28;20236;-85
2023/05/10 07:34:10;;;;;;;2.20;2.00;;;;;;;;;;5011587;28;20221;-85
2023/05/10 07:36:38;;;;;;;3.97;3.43;;;;;;;;;;5011102;28;20316;-85
2023/05/10 07:39:08;;;;;;;4.13;3.27;;;;;;;;;;5011394;28;20213;-85
2023/05/10 07:41:37;;;;;;;2.93;2.73;;;;;;;;;;5011617;28;20197;-85
2023/05/10 07:44:07;;;;;;;8.40;6.03;;;;;;;;;;5012713;28;20201;-85
2023/05/10 07:46:36;;;;;;;2.83;2.23;;;;;;;;;;5015027;28;20227;-85
2023/05/10 07:49:04;;;;;;;4.47;3.47;;;;;;;;;;5014567;28;20193;-86
2023/05/10 07:51:32;;;;;;;2.90;2.53;;;;;;;;;;5014508;28;20193;-85
2023/05/10 07:54:02;;;;;;;8.43;5.87;;;;;;;;;;5015335;28;20205;-85
2023/05/10 07:56:32;;;;;;;3.20;1.97;;;;;;;;;;5014470;28;20234;-85
2023/05/10 07:59:00;;;;;;;4.70;4.10;;;;;;;;;;5014334;28;20201;-85
2023/05/10 08:01:32;;;;;;;5.13;3.30;;;;;;;;;;5014619;28;20203;-85
2023/05/10 08:04:01;;;;;;;3.60;1.97;;;;;;;;;;5014176;28;20298;-85
2023/05/10 08:06:30;;;;;;;3.20;2.07;;;;;;;;;;5014366;28;20213;-85
2023/05/10 08:08:58;;;;;;;4.77;3.60;;;;;;;;;;5013929;28;20249;-85
2023/05/10 08:11:28;;;;;;;4.63;3.87;;;;;;;;;;5014353;28;20204;-85
2023/05/10 08:13:56;;;;;;;3.93;3.10;;;;;;;;;;5014431;28;20256;-85
2023/05/10 08:16:27;;;;;;;5.80;4.67;;;;;;;;;;5013687;28;20241;-85
2023/05/10 08:18:57;;;;;;;7.20;5.37;;;;;;;;;;5014366;28;20215;-85
2023/05/10 08:21:25;;;;;;;5.90;3.37;;;;;;;;;;5014299;28;20206;-85
2023/05/10 08:23:54;;;;;;;5.33;4.17;;;;;;;;;;5013735;28;20222;-85
2023/05/10 08:26:22;;;;;;;5.60;3.93;;;;;;;;;;5014263;28;20206;-85
2023/05/10 08:28:51;;;;;;;4.33;3.20;;;;;;;;;;5014183;28;20198;-85
2023/05/10 08:31:19;;;;;;;6.03;4.77;;;;;;;;;;5013621;28;20234;-85
2023/05/10 08:33:48;;;;;;;3.03;2.40;;;;;;;;;;5013944;28;20203;-85
2023/05/10 08:36:21;;;;;;;2.10;1.80;;;;;;;;;;5014006;28;20207;-85
2023/05/10 08:38:51;;;;;;;2.80;2.33;;;;;;;;;;5014436;28;20206;-86
2023/05/10 08:41:21;;;;;;;3.57;2.90;;;;;;;;;;5014354;28;20255;-85
2023/05/10 08:43:50;;;;;;;3.27;2.97;;;;;;;;;;5013887;28;20202;-85
2023/05/10 08:46:19;;;;;;;3.80;3.03;;;;;;;;;;5013361;28;20195;-85
2023/05/10 08:48:48;;;;;;;5.40;2.87;;;;;;;;;;5013991;28;20206;-85
2023/05/10 08:51:19;;;;;;;3.83;3.40;;;;;;;;;;5013459;28;20202;-85
2023/05/10 08:53:49;;;;;;;2.27;2.07;;;;;;;;;;5012975;28;20207;-85
2023/05/10 08:56:18;;;;;;;7.07;3.53;;;;;;;;;;5012666;28;20217;-85
2023/05/10 08:58:49;;;;;;;3.50;1.43;;;;;;;;;;5013631;28;20244;-85
2023/05/10 09:01:18;;;;;;;2.60;2.23;;;;;;;;;;5013184;28;20263;-85
2023/05/10 09:03:48;;;;;;;5.97;4.93;;;;;;;;;;5013494;28;20218;-86
2023/05/10 09:06:16;;;;;;;2.80;2.57;;;;;;;;;;5013446;28;20214;-86
2023/05/10 09:08:46;;;;;;;5.90;4.57;;;;;;;;;;5013537;28;20269;-85
2023/05/10 09:11:15;;;;;;;3.60;2.67;;;;;;;;;;5013112;28;20305;-85
2023/05/10 09:13:44;;;;;;;2.27;2.07;;;;;;;;;;5013173;28;20202;-85
2023/05/10 09:16:12;;;;;;;4.67;4.23;;;;;;;;;;5013117;28;20210;-85
2023/05/10 09:18:50;;;;;;;4.60;2.33;;;;;;;;;;5012942;28;20280;-85
2023/05/10 09:21:18;;;;;;;6.10;3.67;;;;;;;;;;5013005;28;20202;-85
2023/05/10 09:23:49;;;;;;;9.63;4.63;;;;;;;;;;5012922;28;20203;-84
2023/05/10 09:26:18;;;;;;;6.90;4.40;;;;;;;;;;5012889;28;20207;-86
2023/05/10 09:28:53;;;;;;;2.57;2.03;;;;;;;;;;5013082;28;20253;-85
2023/05/10 09:31:26;;;;;;;3.87;3.57;;;;;;;;;;5010490;28;20218;-86
2023/05/10 09:33:56;;;;;;;10.47;7.60;;;;;;;;;;5010741;28;20249;-86
2023/05/10 09:36:29;;;;;;;8.50;5.87;;;;;;;;;;5004922;28;20203;-86
2023/05/10 09:38:59;;;;;;;3.97;3.27;;;;;;;;;;5011029;28;20229;-85
2023/05/10 09:41:27;;;;;;;5.93;3.90;;;;;;;;;;5010138;28;20208;-86
2023/05/10 09:43:57;;;;;;;9.67;5.47;;;;;;;;;;5011578;28;20234;-86
2023/05/10 09:46:26;;;;;;;3.57;2.97;;;;;;;;;;5013707;28;20214;-86
2023/05/10 09:48:55;;;;;;;5.60;5.10;;;;;;;;;;5013503;28;20195;-86
2023/05/10 09:51:23;;;;;;;10.23;5.83;;;;;;;;;;5012347;28;20203;-85
2023/05/10 09:54:10;;;;;;;4.23;3.30;;;;;;;;;;5012177;28;20223;-86
2023/05/10 09:56:40;;;;;;;9.13;6.63;;;;;;;;;;5011745;28;20202;-86
2023/05/10 09:59:12;;;;;;;8.27;5.50;;;;;;;;;;5012447;28;20218;-86
2023/05/10 10:01:41;;;;;;;9.57;6.37;;;;;;;;;;5012108;28;20207;-86
2023/05/10 10:04:11;;;;;;;7.80;4.30;;;;;;;;;;5012135;28;20226;-84
2023/05/10 10:06:40;;;;;;;7.53;5.60;;;;;;;;;;5011442;28;20208;-85
2023/05/10 10:09:10;;;;;;;3.30;2.27;;;;;;;;;;5011946;28;20231;-85
2023/05/10 10:11:41;;;;;;;7.83;5.37;;;;;;;;;;5011537;28;20202;-85
2023/05/10 10:14:10;;;;;;;5.87;4.40;;;;;;;;;;5011779;28;20218;-83
2023/05/10 10:16:41;;;;;;;6.47;4.77;;;;;;;;;;5010873;28;20231;-85
2023/05/10 10:19:27;;;;;;;6.00;3.73;;;;;;;;;;5011592;28;20234;-86
2023/05/10 10:21:55;;;;;;;5.13;3.07;;;;;;;;;;5010568;28;20211;-87
2023/05/10 10:24:25;;;;;;;5.00;3.20;;;;;;;;;;5011703;28;20281;-86
2023/05/10 10:26:57;;;;;;;6.60;4.63;;;;;;;;;;5011817;28;20220;-86
2023/05/10 10:29:27;;;;;;;5.40;4.33;;;;;;;;;;5010981;28;20204;-86
2023/05/10 10:31:59;;;;;;;9.03;6.27;;;;;;;;;;5010329;28;20245;-86
2023/05/10 10:34:28;;;;;;;7.60;5.90;;;;;;;;;;5011179;28;20235;-86
2023/05/10 10:36:57;;;;;;;7.30;4.80;;;;;;;;;;5011909;28;20239;-86
2023/05/10 10:39:28;;;;;;;8.17;6.50;;;;;;;;;;5011782;28;20223;-86
2023/05/10 10:41:57;;;;;;;4.80;3.57;;;;;;;;;;5012307;28;20215;-85
2023/05/10 10:44:27;;;;;;;9.27;7.40;;;;;;;;;;5005340;28;20211;-86
2023/05/10 10:47:22;;;;;;;9.13;4.20;;;;;;;;;;4999600;28;20207;-85
2023/05/10 10:49:52;;;;;;;8.87;6.27;;;;;;;;;;5008191;28;20298;-85
2023/05/10 10:52:27;;;;;;;8.87;6.63;;;;;;;;;;5009102;28;20284;-86
2023/05/10 10:55:01;;;;;;;6.20;4.33;;;;;;;;;;5005169;28;20208;-84
2023/05/10 10:57:32;;;;;;;7.00;4.60;;;;;;;;;;5007247;28;20269;-85
2023/05/10 11:00:20;;;;;;;14.30;8.93;;;;;;;;;;5007950;28;20211;-84
2023/05/10 11:02:50;;;;;;;6.73;4.23;;;;;;;;;;5003376;28;20207;-85
2023/05/10 11:05:25;;;;;;;5.43;4.17;;;;;;;;;;5000535;28;20214;-86
2023/05/10 11:07:55;;;;;;;4.53;3.40;;;;;;;;;;5001484;28;20210;-84
2023/05/10 11:10:25;;;;;;;3.07;2.87;;;;;;;;;;5000959;28;20278;-84
2023/05/10 11:12:55;;;;;;;4.30;3.50;;;;;;;;;;5006206;28;20320;-84
2023/05/10 11:15:31;;;;;;;6.97;2.50;;;;;;;;;;5003678;28;20203;-85
2023/05/10 11:17:59;;;;;;;3.10;2.47;;;;;;;;;;4998541;28;20246;-84
2023/05/10 11:20:40;;;;;;;10.27;3.40;;;;;;;;;;5011031;28;20218;-83
2023/05/10 11:23:15;;;;;;;6.50;4.53;;;;;;;;;;5006780;28;20215;-84
2023/05/10 11:25:48;;;;;;;3.50;2.67;;;;;;;;;;5008101;28;20233;-83
2023/05/10 11:28:33;;;;;;;3.90;2.90;;;;;;;;;;5007140;28;20234;-85
2023/05/10 11:31:02;;;;;;;3.23;2.40;;;;;;;;;;5001612;28;20197;-85
2023/05/10 11:33:31;;;;;;;1.57;1.47;;;;;;;;;;5000535;28;20214;-83
2023/05/10 11:36:02;;;;;;;2.70;2.50;;;;;;;;;;5000262;28;20238;-85
2023/05/10 11:38:38;;;;;;;8.63;3.23;;;;;;;;;;5000859;28;20359;-84
2023/05/10 11:41:12;;;;;;;1.83;1.53;;;;;;;;;;5007310;28;20212;-84
2023/05/10 11:43:41;;;;;;;6.87;2.93;;;;;;;;;;5007205;28;20196;-85
2023/05/10 11:46:12;;;;;;;3.40;2.77;;;;;;;;;;5003748;28;20291;-84
2023/05/10 11:48:41;;;;;;;1.37;1.27;;;;;;;;;;5004482;28;20213;-84
2023/05/10 11:51:15;;;;;;;2.97;2.33;;;;;;;;;;5007177;28;20198;-85
2023/05/10 11:53:45;;;;;;;2.47;1.50;;;;;;;;;;5001946;28;20225;-85
2023/05/10 11:56:21;;;;;;;2.63;1.80;;;;;;;;;;5007868;28;20207;-86
2023/05/10 11:58:54;;;;;;;2.67;2.10;;;;;;;;;;5004669;28;20223;-85
2023/05/10 12:01:26;;;;;;;1.83;1.40;;;;;;;;;;5005213;28;20293;-85
2023/05/10 12:03:59;;;;;;;2.77;1.83;;;;;;;;;;5002978;28;20213;-83
2023/05/10 12:06:29;;;;;;;4.20;2.67;;;;;;;;;;5002559;28;20210;-84
2023/05/10 12:08:58;;;;;;;2.70;2.40;;;;;;;;;;5005539;28;20222;-84
2023/05/10 12:11:31;;;;;;;3.10;2.43;;;;;;;;;;5003894;28;20217;-84
2023/05/10 12:14:07;;;;;;;0.93;0.93;;;;;;;;;;5006350;28;20214;-84
2023/05/10 12:16:44;;;;;;;1.33;1.23;;;;;;;;;;5001293;28;20209;-85
2023/05/10 12:19:14;;;;;;;5.83;3.10;;;;;;;;;;4997724;28;20217;-84
2023/05/10 12:21:42;;;;;;;4.63;3.80;;;;;;;;;;5001277;28;20214;-84
2023/05/10 12:24:12;;;;;;;3.53;1.63;;;;;;;;;;5003008;28;20220;-85
2023/05/10 12:26:43;;;;;;;2.77;1.60;;;;;;;;;;5001982;28;20310;-85
2023/05/10 12:29:23;;;;;;;0.70;0.70;;;;;;;;;;4991984;28;20232;-84
2023/05/10 12:32:01;;;;;;;1.40;1.30;;;;;;;;;;4997932;28;20212;-85
2023/05/10 12:34:42;;;;;;;3.77;3.37;;;;;;;;;;5001223;28;20211;-83
2023/05/10 12:37:18;;;;;;;1.57;1.47;;;;;;;;;;5001145;28;20211;-83
2023/05/10 12:39:52;;;;;;;1.73;1.63;;;;;;;;;;5002986;28;20259;-84
2023/05/10 12:42:25;;;;;;;1.63;1.53;;;;;;;;;;5000767;28;20311;-84
2023/05/10 12:44:56;;;;;;;6.63;5.10;;;;;;;;;;5001192;28;20213;-84
2023/05/10 12:47:27;;;;;;;7.00;6.23;;;;;;;;;;4999972;28;20195;-86
2023/05/10 12:49:56;;;;;;;4.83;3.20;;;;;;;;;;5002275;28;20286;-84
2023/05/10 12:52:28;;;;;;;7.27;6.57;;;;;;;;;;5004603;28;20204;-86
2023/05/10 12:54:57;;;;;;;5.67;5.17;;;;;;;;;;5012681;28;20196;-84
2023/05/10 12:57:30;;;;;;;4.23;3.83;;;;;;;;;;5012644;28;20227;-84
2023/05/10 12:59:58;;;;;;;7.10;4.53;;;;;;;;;;5014389;28;20314;-84
2023/05/10 13:02:27;;;;;;;4.13;3.67;;;;;;;;;;5008625;28;20291;-84
2023/05/10 13:04:57;;;;;;;3.43;3.03;;;;;;;;;;5015746;28;20231;-84
2023/05/10 13:07:26;;;;;;;4.50;4.10;;;;;;;;;;5011186;28;20275;-84
2023/05/10 13:09:55;;;;;;;2.97;2.67;;;;;;;;;;5015181;28;20282;-84
2023/05/10 13:12:25;;;;;;;1.70;1.60;;;;;;;;;;5009311;28;20207;-84
2023/05/10 13:14:55;;;;;;;2.67;1.73;;;;;;;;;;5015582;28;20204;-84
2023/05/10 13:17:26;;;;;;;3.13;2.70;;;;;;;;;;5005798;28;20206;-83
2023/05/10 13:19:55;;;;;;;4.07;2.70;;;;;;;;;;5012986;28;20218;-88
2023/05/10 13:22:23;;;;;;;1.50;1.40;;;;;;;;;;5007548;28;20196;-88
2023/05/10 13:25:07;;;;;;;4.17;3.60;;;;;;;;;;5007435;28;20216;-87
2023/05/10 13:27:36;;;;;;;2.23;2.03;;;;;;;;;;5016946;28;20219;-86
2023/05/10 13:30:11;;;;;;;5.47;2.37;;;;;;;;;;5013602;28;20207;-86
2023/05/10 13:32:39;;;;;;;5.93;3.90;;;;;;;;;;5013636;28;20206;-86
2023/05/10 13:35:08;;;;;;;6.27;4.63;;;;;;;;;;5013886;28;20301;-85
2023/05/10 13:37:37;;;;;;;6.00;5.23;;;;;;;;;;5014092;28;20215;-86
2023/05/10 13:40:08;;;;;;;4.77;3.50;;;;;;;;;;5013441;28;20227;-85
2023/05/10 13:42:37;;;;;;;3.60;2.33;;;;;;;;;;5013256;28;20192;-86
2023/05/10 13:45:06;;;;;;;3.40;3.10;;;;;;;;;;5013554;28;20202;-86
2023/05/10 13:47:50;;;;;;;;;;;;;;;;;;;;;
2023/05/10 13:50:22;;;;;;;1.77;1.67;;;;;;;;;;5007915;28;20276;-85
2023/05/10 13:52:53;;;;;;;7.87;5.20;;;;;;;;;;5011474;28;20202;-86
2023/05/10 13:55:24;;;;;;;2.43;1.50;;;;;;;;;;5004330;28;20191;-85
2023/05/10 13:57:57;;;;;;;2.00;1.80;;;;;;;;;;5006864;28;20199;-85
2023/05/10 14:00:27;;;;;;;4.50;2.23;;;;;;;;;;4993488;28;20208;-85
2023/05/10 14:02:59;;;;;;;2.13;1.47;;;;;;;;;;5001640;28;20255;-86
2023/05/10 14:05:30;;;;;;;5.70;2.47;;;;;;;;;;5010930;28;20254;-85
2023/05/10 14:07:58;;;;;;;2.23;2.13;;;;;;;;;;5009766;28;20242;-86
2023/05/10 14:10:30;;;;;;;4.30;2.87;;;;;;;;;;5012279;28;20201;-85
2023/05/10 14:13:02;;;;;;;1.30;1.20;;;;;;;;;;5014578;28;20207;-86
2023/05/10 14:15:33;;;;;;;11.33;2.40;;;;;;;;;;5014704;28;20288;-84
2023/05/10 14:18:04;;;;;;;3.67;3.20;;;;;;;;;;5017209;28;20261;-86
2023/05/10 14:20:36;;;;;;;2.50;1.83;;;;;;;;;;5012459;28;20347;-84
2023/05/10 14:23:07;;;;;;;1.87;1.77;;;;;;;;;;5008548;28;20222;-85
2023/05/10 14:25:49;;;;;;;1.13;1.10;;;;;;;;;;5008398;28;20281;-85
2023/05/10 14:28:31;;;;;;;5.40;4.20;;;;;;;;;;5008201;28;20282;-84
2023/05/10 14:31:02;;;;;;;1.70;1.07;;;;;;;;;;5011515;28;20207;-85
2023/05/10 14:33:42;;;;;;;3.50;2.03;;;;;;;;;;5012034;28;20195;-85
2023/05/10 14:36:11;;;;;;;1.90;1.63;;;;;;;;;;5005751;28;20307;-84
2023/05/10 14:38:39;;;;;;;2.43;1.80;;;;;;;;;;5010275;28;20215;-84
2023/05/10 14:41:08;;;;;;;8.77;1.87;;;;;;;;;;5003871;28;20230;-83
2023/05/10 14:43:39;;;;;;;2.60;1.60;;;;;;;;;;5016774;28;20241;-84
2023/05/10 14:46:08;;;;;;;2.00;1.70;;;;;;;;;;5011553;28;20248;-84
2023/05/10 14:48:37;;;;;;;1.50;1.40;;;;;;;;;;5005134;28;20293;-85
2023/05/10 14:51:07;;;;;;;5.23;4.73;;;;;;;;;;5019451;28;20272;-84
2023/05/10 14:53:36;;;;;;;4.80;4.40;;;;;;;;;;5007980;28;20212;-84
2023/05/10 14:56:04;;;;;;;2.37;2.17;;;;;;;;;;5016443;28;20199;-83
2023/05/10 14:58:33;;;;;;;3.37;3.07;;;;;;;;;;5016739;28;20204;-83
2023/05/10 15:01:02;;;;;;;5.03;3.33;;;;;;;;;;5016274;28;20218;-83